Time;durP1;ratioP1;P1;durP2;ratioP2;P2;SDS_P1;SDS_P2;PMS_P1;PMS_P2;Temp;Humidity;BMP_temperature;BMP_pressure;BME280_temperature;BME280_humidity;BME280_pressure;Samples;Min_cycle;Max_cycle;Signal;HPM_P1;HPM_P2
2022/11/14 00:05:14;;;;;;;32.67;14.03;;;;;;;11.02;100.00;100281.20;4154495;83;28605;-78
2022/11/14 00:11:34;;;;;;;34.92;14.98;;;;;;;10.67;100.00;100273.25;4132942;84;28566;-78
2022/11/14 00:17:54;;;;;;;33.95;14.83;;;;;;;10.71;100.00;100275.84;4149265;83;28508;-79
2022/11/14 00:24:14;;;;;;;35.15;14.23;;;;;;;11.19;100.00;100275.95;4117453;84;28554;-78
2022/11/14 00:30:33;;;;;;;31.35;14.03;;;;;;;11.24;100.00;100265.42;4148156;84;28596;-77
2022/11/14 00:36:53;;;;;;;34.35;14.53;;;;;;;11.13;100.00;100260.11;4138445;83;28550;-78
2022/11/14 00:43:13;;;;;;;35.78;13.45;;;;;;;11.53;100.00;100260.69;4124771;84;28544;-77
2022/11/14 00:49:32;;;;;;;32.33;14.15;;;;;;;10.80;100.00;100267.09;4126194;84;28536;-78
2022/11/14 00:55:52;;;;;;;32.90;14.43;;;;;;;10.78;100.00;100265.13;4117564;83;28519;-78
2022/11/14 01:02:12;;;;;;;31.10;13.20;;;;;;;10.32;100.00;100260.66;4120729;84;28499;-79
2022/11/14 01:08:31;;;;;;;37.85;16.12;;;;;;;10.83;100.00;100258.61;4192226;83;28596;-78
2022/11/14 01:14:52;;;;;;;37.33;14.00;;;;;;;10.76;100.00;100254.25;4198875;82;28525;-77
2022/11/14 01:21:13;;;;;;;37.67;14.75;;;;;;;10.74;100.00;100245.88;4198269;83;28621;-77
2022/11/14 01:27:34;;;;;;;36.40;14.78;;;;;;;10.77;100.00;100248.65;4213266;82;28602;-76
2022/11/14 01:33:54;;;;;;;33.65;14.03;;;;;;;10.73;100.00;100237.99;4240565;81;28513;-76
2022/11/14 01:40:15;;;;;;;33.42;13.83;;;;;;;11.14;100.00;100234.34;4216041;83;28563;-76
2022/11/14 01:46:39;;;;;;;31.57;12.75;;;;;;;10.78;100.00;100230.16;4189893;82;28525;-76
2022/11/14 01:52:58;;;;;;;27.45;12.05;;;;;;;10.56;100.00;100226.77;4210508;81;28553;-77
2022/11/14 01:59:22;;;;;;;29.60;12.53;;;;;;;10.22;100.00;100229.81;4229594;81;28541;-76
2022/11/14 02:05:45;;;;;;;26.87;11.35;;;;;;;10.98;100.00;100218.58;4190487;83;28564;-75
2022/11/14 02:12:08;;;;;;;30.17;12.85;;;;;;;10.76;100.00;100225.47;4209899;83;28529;-76
2022/11/14 02:18:28;;;;;;;24.57;11.08;;;;;;;10.37;100.00;100214.36;4193365;83;28582;-77
2022/11/14 02:24:48;;;;;;;24.72;11.00;;;;;;;10.36;100.00;100205.14;4196463;82;28601;-78
2022/11/14 02:31:07;;;;;;;24.43;10.72;;;;;;;10.37;100.00;100200.92;4212000;83;28602;-77
2022/11/14 02:37:27;;;;;;;29.95;11.33;;;;;;;10.24;100.00;100200.34;4141300;83;28523;-77
2022/11/14 02:43:47;;;;;;;22.00;10.78;;;;;;;10.15;100.00;100195.66;4193022;83;28561;-80
2022/11/14 02:50:07;;;;;;;22.02;10.28;;;;;;;9.88;100.00;100185.30;4198490;83;28549;-76
2022/11/14 02:56:27;;;;;;;24.77;10.40;;;;;;;10.24;100.00;100191.47;4224799;82;28518;-77
2022/11/14 03:02:47;;;;;;;21.95;10.10;;;;;;;10.12;100.00;100193.88;4238742;82;28536;-77
2022/11/14 03:09:06;;;;;;;26.40;10.88;;;;;;;9.89;100.00;100181.59;4201330;82;28554;-77
2022/11/14 03:15:26;;;;;;;18.20;8.93;;;;;;;10.13;100.00;100182.11;4209339;82;28545;-77
2022/11/14 03:21:46;;;;;;;18.27;9.10;;;;;;;10.16;100.00;100170.45;4225880;82;28612;-76
2022/11/14 03:28:05;;;;;;;20.68;9.63;;;;;;;10.17;100.00;100173.98;4183666;82;28618;-76
2022/11/14 03:34:25;;;;;;;20.45;9.48;;;;;;;9.86;100.00;100168.56;4208638;82;29181;-76
2022/11/14 03:40:44;;;;;;;20.75;9.60;;;;;;;10.81;100.00;100176.44;4164609;82;28531;-76
2022/11/14 03:47:04;;;;;;;18.15;8.78;;;;;;;10.87;100.00;100180.48;4202434;82;28581;-76
2022/11/14 03:53:24;;;;;;;18.30;9.15;;;;;;;10.80;100.00;100176.13;4180815;82;28536;-77
2022/11/14 03:59:44;;;;;;;17.50;8.65;;;;;;;10.00;100.00;100164.90;4123297;84;28547;-77
2022/11/14 04:06:04;;;;;;;18.98;8.63;;;;;;;10.24;100.00;100179.37;4143069;83;28575;-75
2022/11/14 04:12:24;;;;;;;14.98;7.62;;;;;;;10.91;100.00;100155.87;4188906;83;28594;-75
2022/11/14 04:18:44;;;;;;;17.12;8.20;;;;;;;10.41;100.00;100141.73;4276924;81;28547;-75
2022/11/14 04:25:05;;;;;;;16.05;7.60;;;;;;;10.43;100.00;100142.86;4213173;82;28541;-75
2022/11/14 04:31:24;;;;;;;16.30;8.03;;;;;;;10.51;100.00;100146.70;4257995;81;28592;-76
2022/11/14 04:37:45;;;;;;;17.92;8.78;;;;;;;10.71;100.00;100144.58;4250936;81;28555;-76
2022/11/14 04:44:05;;;;;;;18.42;8.70;;;;;;;10.46;100.00;100145.13;4267049;81;28537;-76
2022/11/14 04:50:24;;;;;;;17.77;9.05;;;;;;;10.65;100.00;100139.50;4198700;82;28496;-76
2022/11/14 04:56:44;;;;;;;19.23;9.25;;;;;;;11.06;100.00;100128.23;4271209;80;28525;-77
2022/11/14 05:03:03;;;;;;;17.42;8.98;;;;;;;11.24;100.00;100122.75;4240799;82;28530;-77
2022/11/14 05:09:23;;;;;;;21.42;10.13;;;;;;;11.25;100.00;100125.75;4232619;82;28567;-77
2022/11/14 05:15:43;;;;;;;20.68;10.03;;;;;;;11.15;100.00;100120.27;4167428;83;28557;-77
2022/11/14 05:22:02;;;;;;;18.67;9.75;;;;;;;11.32;100.00;100112.27;4199251;83;28590;-77
2022/11/14 05:28:22;;;;;;;19.30;10.05;;;;;;;10.96;100.00;100100.91;4201761;83;28602;-76
2022/11/14 05:34:44;;;;;;;20.90;10.18;;;;;;;11.28;99.47;100119.43;4200269;83;28541;-76
2022/11/14 05:41:10;;;;;;;20.60;9.60;;;;;;;11.14;99.29;100115.92;4197629;83;28579;-76
2022/11/14 05:47:30;;;;;;;18.65;9.23;;;;;;;11.14;99.62;100113.73;4221211;82;28474;-78
2022/11/14 05:53:50;;;;;;;16.93;9.18;;;;;;;10.18;100.00;100121.34;4233292;81;28581;-76
2022/11/14 06:00:11;;;;;;;16.77;8.45;;;;;;;10.02;100.00;100127.91;4265450;81;28650;-77
2022/11/14 06:06:31;;;;;;;14.65;8.08;;;;;;;10.13;100.00;100129.20;4213284;83;28545;-79
2022/11/14 06:12:50;;;;;;;14.93;7.97;;;;;;;9.80;100.00;100124.52;4191175;82;28675;-79
2022/11/14 06:19:10;;;;;;;15.25;8.50;;;;;;;10.17;100.00;100128.29;4159581;83;28522;-82
2022/11/14 06:25:30;;;;;;;17.10;8.53;;;;;;;10.08;100.00;100134.34;4210618;83;28550;-85
2022/11/14 06:31:49;;;;;;;18.02;8.58;;;;;;;10.35;100.00;100140.31;4200771;82;28516;-83
2022/11/14 06:38:09;;;;;;;15.72;8.68;;;;;;;10.74;100.00;100135.59;4175080;83;28544;-84
2022/11/14 06:44:31;;;;;;;17.60;9.20;;;;;;;10.84;100.00;100130.32;4220932;82;28525;-82
2022/11/14 06:50:59;;;;;;;17.42;8.50;;;;;;;10.02;100.00;100131.94;4182780;82;28599;-78
2022/11/14 06:57:17;;;;;;;18.42;9.73;;;;;;;9.80;100.00;100123.68;4175584;82;28531;-78
2022/11/14 07:03:37;;;;;;;17.37;9.23;;;;;;;9.88;100.00;100120.30;4184181;82;28656;-78
2022/11/14 07:09:58;;;;;;;14.87;8.13;;;;;;;10.27;100.00;100115.80;4186357;83;28577;-78
2022/11/14 07:16:28;;;;;;;15.75;8.45;;;;;;;10.33;100.00;100113.12;4163510;83;28554;-78
2022/11/14 07:22:47;;;;;;;14.03;8.03;;;;;;;10.03;100.00;100115.31;4131198;84;28586;-78
2022/11/14 07:29:10;;;;;;;16.57;9.03;;;;;;;10.44;100.00;100118.97;4201411;83;28524;-78
2022/11/14 07:35:30;;;;;;;16.87;8.70;;;;;;;10.34;100.00;100127.41;4219073;83;28590;-78
2022/11/14 07:41:49;;;;;;;18.20;9.53;;;;;;;10.56;100.00;100121.36;4184987;82;28584;-78
2022/11/14 07:48:10;;;;;;;20.57;9.60;;;;;;;10.33;100.00;100123.88;4180976;82;28509;-78
2022/11/14 07:54:30;;;;;;;17.57;9.58;;;;;;;10.53;100.00;100124.47;4215266;82;28491;-78
2022/11/14 08:00:49;;;;;;;17.15;9.20;;;;;;;10.85;100.00;100113.95;4227986;81;28569;-78
2022/11/14 08:07:09;;;;;;;18.00;9.45;;;;;;;10.74;100.00;100109.19;4174920;82;28650;-78
2022/11/14 08:13:30;;;;;;;18.27;9.55;;;;;;;10.76;100.00;100107.65;4201081;83;28578;-78
2022/11/14 08:19:50;;;;;;;16.73;8.95;;;;;;;10.40;100.00;100098.34;4192992;82;28552;-78
2022/11/14 08:26:10;;;;;;;19.75;10.13;;;;;;;10.66;100.00;100090.55;4228134;82;28491;-79
2022/11/14 08:32:30;;;;;;;20.23;9.65;;;;;;;10.70;100.00;100071.65;4200526;82;28554;-79
2022/11/14 08:38:51;;;;;;;17.42;9.03;;;;;;;10.93;100.00;100066.36;4198408;82;28606;-79
2022/11/14 08:45:11;;;;;;;18.23;10.13;;;;;;;10.29;100.00;100070.72;4165556;84;28555;-79
2022/11/14 08:51:34;;;;;;;19.65;9.65;;;;;;;11.11;100.00;100063.02;4139576;84;28512;-80
2022/11/14 08:57:53;;;;;;;18.02;9.53;;;;;;;10.86;99.55;100066.37;4188867;82;28557;-79
2022/11/14 09:04:13;;;;;;;17.17;9.95;;;;;;;10.86;100.00;100060.45;4207652;82;28564;-80
2022/11/14 09:10:34;;;;;;;21.20;10.55;;;;;;;11.45;97.91;100063.77;4232948;82;28530;-79
2022/11/14 09:16:53;;;;;;;19.07;10.60;;;;;;;12.09;92.01;100065.83;4164988;82;28571;-79
2022/11/14 09:23:14;;;;;;;16.05;8.98;;;;;;;12.49;89.27;100067.44;4205094;82;28494;-79
2022/11/14 09:29:33;;;;;;;15.65;8.60;;;;;;;11.98;87.75;100058.70;4240188;81;28533;-79
2022/11/14 09:36:06;;;;;;;15.45;9.35;;;;;;;11.77;88.97;100058.50;4215250;81;28565;-79
2022/11/14 09:43:06;;;;;;;18.70;10.00;;;;;;;12.53;86.50;100053.30;4197386;82;28537;-79
2022/11/14 09:49:45;;;;;;;17.45;10.25;;;;;;;12.68;85.34;100048.92;4101122;82;28556;-79
2022/11/14 09:56:09;;;;;;;20.08;11.40;;;;;;;12.38;85.55;100037.43;4187973;82;28546;-79
2022/11/14 10:03:04;;;;;;;18.80;10.43;;;;;;;12.05;88.08;100030.92;4170001;82;28581;-80
2022/11/14 10:09:57;;;;;;;20.75;11.97;;;;;;;12.11;87.41;100034.09;4187060;81;28559;-79
2022/11/14 10:16:31;;;;;;;21.37;11.85;;;;;;;11.96;89.87;100028.95;4188506;81;28548;-79
2022/11/14 10:23:09;;;;;;;22.17;12.55;;;;;;;12.39;88.77;100031.02;4208256;81;28513;-79
2022/11/14 10:29:52;;;;;;;21.35;12.37;;;;;;;11.77;90.81;100019.94;4244456;81;28511;-80
2022/11/14 10:36:24;;;;;;;19.23;10.72;;;;;;;11.92;90.19;100011.58;4243434;81;28495;-80
2022/11/14 10:42:48;;;;;;;20.68;11.40;;;;;;;11.25;92.27;100009.99;4218340;82;28592;-79
2022/11/14 10:49:30;;;;;;;21.82;12.63;;;;;;;10.76;95.54;99986.61;4179601;82;28546;-79
2022/11/14 10:55:55;;;;;;;22.07;12.10;;;;;;;11.92;92.29;99981.94;4144798;81;28564;-79
2022/11/14 11:02:16;;;;;;;20.20;11.25;;;;;;;12.15;89.12;99975.17;4160891;82;28566;-79
2022/11/14 11:15:30;;;;;;;23.02;12.25;;;;;;;11.54;88.91;99960.70;4199793;81;28531;-78
2022/11/14 11:21:51;;;;;;;24.25;12.65;;;;;;;10.62;96.18;99964.28;4263854;81;28471;-79
2022/11/14 11:28:21;;;;;;;22.25;11.93;;;;;;;10.42;98.23;99971.33;4206012;81;28518;-79
2022/11/14 11:34:40;;;;;;;23.83;12.55;;;;;;;10.37;96.36;99963.01;4179588;82;28530;-80
2022/11/14 11:41:26;;;;;;;22.50;12.40;;;;;;;10.58;97.37;99970.08;4210641;82;28635;-79
2022/11/14 11:48:02;;;;;;;25.43;13.15;;;;;;;11.53;91.65;99955.01;4184587;81;28585;-79
2022/11/14 11:54:27;;;;;;;22.80;12.78;;;;;;;12.02;87.32;99945.06;4191096;82;28602;-79
2022/11/14 12:00:55;;;;;;;23.52;12.53;;;;;;;11.93;86.97;99938.61;4196738;82;43710;-79
2022/11/14 12:07:23;;;;;;;24.10;13.13;;;;;;;11.56;87.54;99946.48;4172779;82;28599;-79
2022/11/14 12:14:24;;;;;;;20.43;11.88;;;;;;;11.61;87.62;99941.30;4179489;82;28616;-79
2022/11/14 12:21:11;;;;;;;21.93;13.35;;;;;;;11.61;88.36;99937.26;4178701;82;29001;-80
2022/11/14 12:27:51;;;;;;;19.15;11.93;;;;;;;11.27;91.68;99924.45;3974432;87;28622;-80
2022/11/14 12:34:34;;;;;;;23.85;13.48;;;;;;;12.23;88.01;99911.56;4113616;82;28617;-80
2022/11/14 12:40:57;;;;;;;19.25;11.68;;;;;;;12.39;86.07;99900.73;4194784;83;28576;-79
2022/11/14 12:47:26;;;;;;;20.35;11.88;;;;;;;12.51;84.45;99900.84;4134602;82;28548;-78
2022/11/14 12:53:46;;;;;;;22.00;12.98;;;;;;;11.94;88.89;99886.87;4166688;82;28556;-80
2022/11/14 13:00:08;;;;;;;24.90;13.18;;;;;;;12.48;86.69;99884.56;4183455;82;28599;-77
2022/11/14 13:06:45;;;;;;;25.72;15.28;;;;;;;12.64;85.44;99882.32;4182085;83;28527;-80
2022/11/14 13:26:23;;;;;;;24.63;14.07;;;;;;;11.95;90.69;99869.15;4198559;81;28563;-79
2022/11/14 13:32:48;;;;;;;25.72;14.15;;;;;;;12.49;87.69;99861.94;4194385;82;28557;-79
2022/11/14 13:39:45;;;;;;;24.33;14.67;;;;;;;11.48;92.73;99858.70;4224880;82;28581;-80
2022/11/14 13:46:22;;;;;;;27.50;15.95;;;;;;;11.49;94.99;99846.05;4221135;82;28613;-80
2022/11/14 13:52:46;;;;;;;28.00;15.68;;;;;;;12.21;90.81;99842.21;4218023;82;28618;-80
2022/11/14 13:59:40;;;;;;;24.95;14.45;;;;;;;12.36;89.15;99837.81;4199840;82;28556;-80
2022/11/14 14:06:20;;;;;;;24.80;14.75;;;;;;;11.38;95.58;99829.55;4194430;82;28558;-80
2022/11/14 14:13:12;;;;;;;27.27;15.23;;;;;;;11.25;96.68;99826.44;4176108;83;28696;-80
2022/11/14 14:19:53;;;;;;;26.73;15.00;;;;;;;10.79;100.00;99820.75;4162377;83;28523;-79
2022/11/14 14:26:56;;;;;;;23.80;13.72;;;;;;;10.94;100.00;99817.28;4190096;83;28559;-78
2022/11/14 14:33:21;;;;;;;25.12;13.83;;;;;;;11.29;98.10;99810.14;4185632;83;28569;-78
2022/11/14 14:40:01;;;;;;;25.52;14.18;;;;;;;10.62;100.00;99807.80;4191263;83;28530;-78
2022/11/14 14:46:32;;;;;;;29.87;15.90;;;;;;;11.13;99.92;99796.69;4201702;83;28567;-79
2022/11/14 14:53:01;;;;;;;30.48;15.85;;;;;;;11.56;99.14;99788.94;4202725;83;28573;-79
2022/11/14 14:59:23;;;;;;;27.27;14.38;;;;;;;10.84;100.00;99799.44;4183576;82;28548;-78
2022/11/14 15:05:43;;;;;;;30.68;15.88;;;;;;;10.29;100.00;99790.69;4210342;83;28521;-78
2022/11/14 15:12:04;;;;;;;29.10;15.58;;;;;;;10.40;100.00;99790.54;4216642;83;28559;-78
2022/11/14 15:18:30;;;;;;;29.92;15.45;;;;;;;10.63;100.00;99781.72;4226288;81;28637;-78
2022/11/14 15:25:15;;;;;;;31.80;16.53;;;;;;;10.59;100.00;99768.70;4199360;82;28470;-78
2022/11/14 15:31:37;;;;;;;33.83;17.23;;;;;;;10.71;100.00;99774.22;4223742;81;28556;-78
2022/11/14 15:38:13;;;;;;;33.60;17.37;;;;;;;11.20;100.00;99771.61;4220831;81;28651;-78
2022/11/14 15:44:33;;;;;;;34.80;18.02;;;;;;;11.34;100.00;99771.81;4219872;81;28533;-77
2022/11/14 15:50:55;;;;;;;32.90;17.07;;;;;;;11.87;99.61;99772.41;4206379;82;28494;-77
2022/11/14 15:57:16;;;;;;;36.42;18.62;;;;;;;11.84;98.07;99779.60;4188461;82;28588;-77
2022/11/14 16:03:38;;;;;;;37.60;19.45;;;;;;;12.02;96.58;99770.75;4233790;82;28560;-77
2022/11/14 16:10:02;;;;;;;31.57;17.90;;;;;;;11.78;98.18;99771.88;4128674;83;28576;-77
2022/11/14 16:16:21;;;;;;;34.90;18.75;;;;;;;11.37;99.10;99767.86;4189259;82;28613;-78
2022/11/14 16:22:41;;;;;;;38.48;19.27;;;;;;;11.00;100.00;99767.17;4232417;82;28577;-77
2022/11/14 16:29:01;;;;;;;36.30;18.40;;;;;;;11.60;100.00;99761.05;4185308;83;28542;-77
2022/11/14 16:35:25;;;;;;;30.52;16.27;;;;;;;12.05;97.15;99756.02;4211238;82;28558;-77
2022/11/14 16:41:45;;;;;;;37.53;19.70;;;;;;;11.52;97.81;99756.77;4216413;82;28499;-79
2022/11/14 16:48:05;;;;;;;35.80;18.12;;;;;;;12.01;96.57;99756.95;4218115;82;28552;-78
2022/11/14 16:54:25;;;;;;;37.93;19.70;;;;;;;12.07;94.72;99761.45;4208797;82;28558;-78
2022/11/14 17:00:45;;;;;;;32.35;17.30;;;;;;;12.21;94.59;99754.06;4186559;82;28597;-77
2022/11/14 17:07:05;;;;;;;39.95;21.37;;;;;;;12.18;94.46;99757.72;4224621;82;28515;-83
2022/11/14 17:13:29;;;;;;;35.73;18.98;;;;;;;12.12;94.02;99745.96;4212061;81;28500;-83
2022/11/14 17:19:49;;;;;;;43.30;19.87;;;;;;;11.94;94.28;99751.63;4196661;82;28592;-83
2022/11/14 17:26:11;;;;;;;39.05;19.15;;;;;;;11.08;100.00;99745.90;4237864;81;28510;-82
2022/11/14 17:32:37;;;;;;;42.08;21.17;;;;;;;11.37;100.00;99741.75;4209418;82;28562;-87
2022/11/14 17:38:58;;;;;;;41.85;20.57;;;;;;;11.06;100.00;99740.72;4250092;80;28507;-85
2022/11/14 17:45:19;;;;;;;41.28;20.77;;;;;;;10.86;100.00;99747.05;4168899;84;28472;-86
2022/11/14 17:51:51;;;;;;;43.65;22.20;;;;;;;11.06;100.00;99737.22;4174870;83;28544;-89
2022/11/14 17:59:00;;;;;;;;;;;;;;;;;;;;;
2022/11/14 18:26:30;;;;;;;45.65;22.45;;;;;;;11.95;98.37;99715.55;4078493;86;28570;-82
2022/11/14 18:33:01;;;;;;;43.85;22.13;;;;;;;12.09;96.71;99713.56;4084481;84;28552;-82
2022/11/14 18:46:40;;;;;;;45.67;21.77;;;;;;;11.98;97.14;99700.81;4189882;82;28541;-91
2022/11/14 19:07:53;;;;;;;49.60;22.32;;;;;;;12.17;95.02;99677.39;4193325;82;28592;-88
2022/11/14 19:14:24;;;;;;;50.83;23.60;;;;;;;12.15;94.83;99680.84;4124525;83;28498;-86
2022/11/14 19:21:06;;;;;;;56.42;24.67;;;;;;;12.05;94.94;99675.96;4185366;82;28486;-86
2022/11/14 19:27:29;;;;;;;54.80;25.10;;;;;;;12.18;94.53;99673.64;4205303;82;28584;-88
2022/11/14 19:33:59;;;;;;;53.60;24.40;;;;;;;12.15;93.88;99666.53;4132290;83;28647;-84
2022/11/14 19:47:47;;;;;;;50.92;22.55;;;;;;;11.36;98.24;99659.88;4113653;83;28649;-90
2022/11/14 19:54:28;;;;;;;;;;;;;;;;;;;;;
2022/11/14 20:01:22;;;;;;;;;;;;;;;;;;;;;
2022/11/14 20:07:41;;;;;;;48.52;20.00;;;;;;;11.30;100.00;99650.27;4176553;82;28513;-88
2022/11/14 20:14:06;;;;;;;47.35;19.55;;;;;;;11.63;97.27;99653.70;4121368;83;28564;-84
2022/11/14 20:20:29;;;;;;;49.03;19.82;;;;;;;11.69;97.04;99649.30;4208753;83;28530;-87
2022/11/14 20:34:43;;;;;;;46.18;19.20;;;;;;;11.77;96.04;99632.01;4176662;82;28547;-93
2022/11/14 20:41:15;;;;;;;42.75;18.98;;;;;;;11.23;100.00;99625.81;4213584;81;28578;-90
2022/11/14 20:47:43;;;;;;;43.28;18.23;;;;;;;11.74;98.13;99613.61;4166302;82;28549;-89
2022/11/14 20:54:23;;;;;;;38.20;17.82;;;;;;;11.74;96.98;99616.30;4182739;82;28638;-86
2022/11/14 21:08:20;;;;;;;;;;;;;;;;;;;;;
2022/11/14 21:14:53;;;;;;;40.25;17.30;;;;;;;11.63;96.46;99599.00;4107080;83;28571;-87
2022/11/14 21:21:30;;;;;;;;;;;;;;;;;;;;;
2022/11/14 21:27:54;;;;;;;39.67;17.70;;;;;;;11.37;97.51;99586.14;3990944;87;28575;-89
2022/11/14 21:34:40;;;;;;;35.95;16.12;;;;;;;11.53;96.01;99589.58;3998005;86;28548;-87
2022/11/14 21:41:18;;;;;;;;;;;;;;;11.60;96.20;99589.49;4044961;84;28584;-87
2022/11/14 21:47:52;;;;;;;31.73;14.73;;;;;;;11.21;98.97;99580.81;4182790;82;20198;-87
2022/11/14 21:54:36;;;;;;;40.30;17.02;;;;;;;11.12;99.67;99571.67;4218967;83;28541;-86
2022/11/14 22:01:15;;;;;;;;;;;;;;;;;;;;;
2022/11/14 22:07:33;;;;;;;32.10;14.33;;;;;;;10.16;100.00;99573.08;4284305;80;28499;-86
2022/11/14 22:14:11;;;;;;;;;;;;;;;;;;;;;
2022/11/14 22:21:02;;;;;;;;;;;;;;;;;;;;;
2022/11/14 22:27:20;;;;;;;31.27;14.38;;;;;;;9.91;100.00;99565.74;4224294;82;28595;-88
2022/11/14 22:33:48;;;;;;;31.27;13.13;;;;;;;10.07;100.00;99568.98;4188406;83;28534;-86
2022/11/14 22:40:14;;;;;;;37.57;14.70;;;;;;;9.94;100.00;99558.59;4175799;83;28560;-86
2022/11/14 22:46:47;;;;;;;30.72;13.65;;;;;;;9.79;100.00;99554.87;4157897;83;28551;-88
2022/11/14 22:53:06;;;;;;;33.00;13.55;;;;;;;10.08;100.00;99559.36;4153727;83;28567;-87
2022/11/14 22:59:33;;;;;;;32.03;13.85;;;;;;;10.00;100.00;99544.85;4122335;84;28512;-87
2022/11/14 23:05:53;;;;;;;32.98;14.05;;;;;;;10.48;100.00;99542.20;4208548;82;28610;-87
2022/11/14 23:12:27;;;;;;;34.15;15.25;;;;;;;10.86;100.00;99539.11;4225288;82;28506;-92
2022/11/14 23:19:00;;;;;;;32.90;14.05;;;;;;;11.05;100.00;99530.53;4244496;80;28964;-91
2022/11/14 23:25:26;;;;;;;31.97;13.55;;;;;;;11.08;100.00;99526.05;4274464;81;28566;-91
2022/11/14 23:31:53;;;;;;;31.55;13.88;;;;;;;10.93;100.00;99526.39;4166111;82;28565;-89
2022/11/14 23:38:12;;;;;;;30.60;12.28;;;;;;;11.13;99.94;99515.45;4222743;82;28559;-91
